Time;durP1;ratioP1;P1;durP2;ratioP2;P2;SDS_P1;SDS_P2;PMS_P1;PMS_P2;Temp;Humidity;BMP_temperature;BMP_pressure;BME280_temperature;BME280_humidity;BME280_pressure;Samples;Min_cycle;Max_cycle;Signal;HPM_P1;HPM_P2
2023/07/16 00:02:04;;;;;;;6.07;3.03;;;18.50;1.00;;;;;;4992633;28;20419;-61
2023/07/16 00:04:31;;;;;;;5.30;3.13;;;18.50;99.90;;;;;;4992882;28;20184;-62
2023/07/16 00:06:56;;;;;;;4.20;2.67;;;18.40;1.00;;;;;;4992649;28;20435;-61
2023/07/16 00:09:22;;;;;;;6.50;3.07;;;18.40;1.00;;;;;;4992495;28;20419;-62
2023/07/16 00:11:47;;;;;;;8.00;3.30;;;18.40;2.10;;;;;;4993067;28;20263;-62
2023/07/16 00:14:13;;;;;;;4.40;2.90;;;18.30;38.40;;;;;;4992501;28;20192;-62
2023/07/16 00:16:39;;;;;;;7.53;3.07;;;18.30;99.90;;;;;;4992624;28;20562;-62
2023/07/16 00:19:04;;;;;;;5.80;2.87;;;18.30;99.90;;;;;;4992784;28;20196;-62
2023/07/16 00:21:30;;;;;;;3.70;2.73;;;18.20;99.90;;;;;;4992805;28;20210;-61
2023/07/16 00:23:55;;;;;;;5.60;3.40;;;18.20;99.90;;;;;;4992545;28;20275;-61
2023/07/16 00:26:21;;;;;;;5.30;3.10;;;18.20;99.90;;;;;;4992442;28;20183;-61
2023/07/16 00:28:47;;;;;;;5.60;3.50;;;18.20;99.90;;;;;;4992468;28;20211;-62
2023/07/16 00:31:12;;;;;;;5.63;3.10;;;18.20;99.90;;;;;;4992662;28;20189;-62
2023/07/16 00:33:38;;;;;;;4.77;3.23;;;18.20;99.90;;;;;;4992549;28;20185;-62
2023/07/16 00:36:04;;;;;;;5.27;3.37;;;18.20;99.90;;;;;;4992767;28;20750;-62
2023/07/16 00:38:30;;;;;;;6.90;2.87;;;18.10;99.90;;;;;;4992086;28;20293;-61
2023/07/16 00:40:56;;;;;;;3.47;3.17;;;18.20;99.90;;;;;;4992263;28;20199;-60
2023/07/16 00:43:22;;;;;;;5.10;3.60;;;18.20;99.90;;;;;;4992259;28;20416;-62
2023/07/16 00:45:48;;;;;;;5.73;2.77;;;18.10;99.90;;;;;;4991948;28;20423;-61
2023/07/16 00:48:14;;;;;;;4.60;2.63;;;18.10;99.90;;;;;;4991970;28;20239;-61
2023/07/16 00:50:41;;;;;;;3.83;3.17;;;18.20;99.90;;;;;;4992108;28;20702;-61
2023/07/16 00:53:08;;;;;;;4.53;2.60;;;18.20;99.90;;;;;;4992434;28;20943;-62
2023/07/16 00:55:35;;;;;;;7.70;3.47;;;18.20;99.90;;;;;;4991676;28;20471;-61
2023/07/16 00:58:05;;;;;;;4.93;3.03;;;18.20;99.90;;;;;;4992349;28;20501;-61
2023/07/16 01:00:40;;;;;;;6.60;3.10;;;18.20;99.90;;;;;;4992013;28;20420;-62
2023/07/16 01:03:08;;;;;;;2.93;2.70;;;18.30;99.90;;;;;;4992376;28;20417;-62
2023/07/16 01:05:56;;;;;;;5.97;3.10;;;18.30;99.90;;;;;;4991979;28;20489;-61
2023/07/16 01:08:38;;;;;;;5.43;3.10;;;18.20;99.90;;;;;;4991967;28;20590;-61
2023/07/16 01:11:04;;;;;;;3.43;2.90;;;18.30;99.90;;;;;;4992301;28;20410;-61
2023/07/16 01:13:30;;;;;;;4.57;2.60;;;18.40;99.90;;;;;;4992068;28;20428;-62
2023/07/16 01:15:56;;;;;;;5.47;2.90;;;18.40;1.00;;;;;;4991808;28;20798;-62
2023/07/16 01:18:21;;;;;;;3.70;2.70;;;18.40;1.00;;;;;;4990591;28;20549;-61
2023/07/16 01:20:47;;;;;;;3.30;2.83;;;18.40;1.00;;;;;;4991556;28;20188;-62
2023/07/16 01:23:50;;;;;;;4.23;2.47;;;18.30;99.90;;;;;;4991733;28;20213;-62
2023/07/16 01:26:29;;;;;;;4.10;2.80;;;18.30;99.90;;;;;;4991809;28;20283;-62
2023/07/16 01:29:34;;;;;;;4.23;2.37;;;18.30;99.90;;;;;;4991642;28;20941;-62
2023/07/16 01:32:03;;;;;;;2.90;2.40;;;18.30;1.00;;;;;;4992005;28;20437;-63
2023/07/16 01:34:33;;;;;;;4.70;2.30;;;18.30;1.00;;;;;;4991775;28;20432;-63
2023/07/16 01:37:00;;;;;;;5.20;2.50;;;18.30;1.00;;;;;;4991545;28;20887;-63
2023/07/16 01:39:26;;;;;;;4.20;2.50;;;18.30;1.00;;;;;;4991668;28;20429;-63
2023/07/16 01:41:51;;;;;;;4.73;2.33;;;18.30;99.90;;;;;;4991494;28;20420;-63
2023/07/16 01:44:17;;;;;;;3.07;2.30;;;18.40;1.00;;;;;;4991379;28;20207;-63
2023/07/16 01:46:42;;;;;;;4.90;2.50;;;18.40;99.90;;;;;;4991462;28;20669;-61
2023/07/16 01:49:08;;;;;;;4.43;2.17;;;18.40;99.90;;;;;;4991595;28;20280;-62
2023/07/16 01:51:33;;;;;;;5.63;2.37;;;18.40;1.00;;;;;;4991548;28;20174;-62
2023/07/16 01:53:59;;;;;;;2.77;2.50;;;18.50;99.90;;;;;;4991173;28;20700;-63
2023/07/16 01:56:25;;;;;;;5.23;2.60;;;18.50;55.80;;;;;;4991258;28;20176;-63
2023/07/16 01:58:50;;;;;;;5.57;2.73;;;18.50;1.00;;;;;;4991609;28;20199;-63
2023/07/16 02:01:16;;;;;;;4.97;2.53;;;18.40;1.00;;;;;;4991087;28;20185;-61
2023/07/16 02:03:41;;;;;;;2.40;2.20;;;18.40;1.00;;;;;;4991108;28;20691;-61
2023/07/16 02:06:07;;;;;;;4.93;3.00;;;18.50;99.90;;;;;;4990920;28;20235;-63
2023/07/16 02:08:32;;;;;;;5.70;2.57;;;18.50;6.50;;;;;;4991229;28;20247;-64
2023/07/16 02:10:58;;;;;;;3.80;2.47;;;18.50;1.00;;;;;;4991517;28;20518;-64
2023/07/16 02:13:23;;;;;;;6.50;2.70;;;18.50;1.00;;;;;;4991483;28;20196;-63
2023/07/16 02:15:49;;;;;;;9.10;2.60;;;18.50;1.00;;;;;;4991170;28;20634;-63
2023/07/16 02:18:15;;;;;;;3.23;2.10;;;18.40;1.00;;;;;;4990856;28;20259;-64
2023/07/16 02:20:40;;;;;;;4.80;2.30;;;18.40;1.00;;;;;;4991012;28;20277;-64
2023/07/16 02:23:06;;;;;;;8.87;2.97;;;18.40;1.00;;;;;;4990833;28;20173;-63
2023/07/16 02:25:33;;;;;;;4.43;2.80;;;18.40;1.00;;;;;;4990718;28;20185;-62
2023/07/16 02:27:58;;;;;;;4.90;2.40;;;18.50;1.00;;;;;;4990892;28;20208;-62
2023/07/16 02:30:24;;;;;;;3.80;2.50;;;18.50;99.90;;;;;;4992170;28;20423;-63
2023/07/16 02:32:49;;;;;;;2.80;1.90;;;18.40;99.90;;;;;;4994536;28;20219;-63
2023/07/16 02:35:15;;;;;;;4.03;2.60;;;18.40;1.00;;;;;;4994226;28;20697;-63
2023/07/16 02:37:40;;;;;;;4.30;2.30;;;18.40;1.00;;;;;;4994103;28;20189;-62
2023/07/16 02:40:07;;;;;;;4.93;2.50;;;18.50;1.00;;;;;;4994129;28;20687;-62
2023/07/16 02:42:32;;;;;;;4.17;2.23;;;18.40;1.00;;;;;;4993890;28;20189;-64
2023/07/16 02:44:58;;;;;;;3.27;2.60;;;18.30;1.00;;;;;;4994079;28;20514;-63
2023/07/16 02:47:23;;;;;;;4.87;2.40;;;18.30;1.00;;;;;;4993685;28;20224;-61
2023/07/16 02:49:52;;;;;;;3.33;2.20;;;18.30;1.00;;;;;;4994133;28;20202;-63
2023/07/16 02:52:17;;;;;;;4.67;2.53;;;18.40;1.00;;;;;;4994206;28;20192;-62
2023/07/16 02:54:43;;;;;;;7.30;2.87;;;18.30;1.00;;;;;;4993668;28;21031;-63
2023/07/16 02:57:09;;;;;;;6.00;2.53;;;18.30;1.00;;;;;;4994252;28;20195;-62
2023/07/16 02:59:34;;;;;;;5.87;2.30;;;18.20;1.00;;;;;;4993859;28;20192;-63
2023/07/16 03:02:00;;;;;;;3.40;2.20;;;18.30;1.00;;;;;;4993607;28;20188;-63
2023/07/16 03:04:25;;;;;;;5.70;2.77;;;18.30;1.00;;;;;;4993747;28;20195;-64
2023/07/16 03:06:51;;;;;;;3.87;2.60;;;18.30;1.00;;;;;;4993922;28;20184;-62
2023/07/16 03:09:17;;;;;;;4.03;2.33;;;18.30;1.00;;;;;;4993272;28;20192;-61
2023/07/16 03:11:43;;;;;;;4.90;3.20;;;18.30;1.00;;;;;;4993851;28;20245;-62
2023/07/16 03:14:08;;;;;;;3.50;2.53;;;18.20;1.00;;;;;;4993679;28;20895;-63
2023/07/16 03:16:34;;;;;;;5.50;2.70;;;18.30;1.00;;;;;;4993990;28;20518;-63
2023/07/16 03:18:59;;;;;;;4.70;2.73;;;18.30;1.00;;;;;;4993761;28;20192;-61
2023/07/16 03:21:25;;;;;;;2.37;2.10;;;18.30;1.00;;;;;;4993113;28;20196;-61
2023/07/16 03:23:50;;;;;;;5.13;2.87;;;18.30;1.00;;;;;;4993457;28;20223;-62
2023/07/16 03:26:16;;;;;;;6.37;2.57;;;18.30;1.00;;;;;;4993197;28;20533;-62
2023/07/16 03:28:41;;;;;;;3.97;2.90;;;18.40;1.00;;;;;;4993298;28;20219;-62
2023/07/16 03:31:07;;;;;;;4.90;2.60;;;18.30;1.00;;;;;;4993489;28;20194;-63
2023/07/16 03:33:33;;;;;;;7.13;2.57;;;18.40;1.00;;;;;;4993562;28;20187;-62
2023/07/16 03:35:58;;;;;;;7.53;2.90;;;18.30;1.00;;;;;;4993371;28;20207;-63
2023/07/16 03:38:24;;;;;;;5.30;2.93;;;18.30;1.00;;;;;;4993252;28;20188;-63
2023/07/16 03:40:50;;;;;;;2.93;2.57;;;18.40;1.00;;;;;;4992989;28;20188;-62
2023/07/16 03:43:16;;;;;;;5.80;2.93;;;18.40;1.00;;;;;;4992626;28;20644;-62
2023/07/16 03:45:43;;;;;;;7.70;2.77;;;18.40;1.00;;;;;;4992901;28;20416;-62
2023/07/16 03:48:08;;;;;;;3.93;2.70;;;18.30;1.00;;;;;;4993089;28;20466;-63
2023/07/16 03:50:35;;;;;;;3.33;2.40;;;18.30;1.00;;;;;;4993093;28;20791;-62
2023/07/16 03:53:00;;;;;;;2.90;2.60;;;18.30;1.00;;;;;;4993488;28;20535;-61
2023/07/16 03:55:26;;;;;;;6.27;2.67;;;18.20;1.00;;;;;;4992884;28;20471;-63
2023/07/16 03:57:52;;;;;;;7.23;3.10;;;18.20;1.00;;;;;;4993022;28;20594;-63
2023/07/16 04:00:18;;;;;;;4.57;2.77;;;18.10;1.00;;;;;;4992965;28;20203;-62
2023/07/16 04:02:43;;;;;;;4.80;3.20;;;18.10;1.00;;;;;;4992623;28;20195;-64
2023/07/16 04:05:09;;;;;;;5.47;3.00;;;18.20;1.00;;;;;;4992953;28;20192;-63
2023/07/16 04:07:35;;;;;;;3.93;3.10;;;18.20;1.00;;;;;;4992944;28;20223;-64
2023/07/16 04:10:01;;;;;;;9.70;2.60;;;18.10;88.10;;;;;;4993142;28;20435;-64
2023/07/16 04:12:26;;;;;;;2.97;2.67;;;18.10;99.90;;;;;;4992747;28;20176;-63
2023/07/16 04:14:58;;;;;;;6.50;3.33;;;18.10;99.90;;;;;;4992757;28;20221;-64
2023/07/16 04:17:24;;;;;;;7.80;3.10;;;18.00;99.90;;;;;;4992731;28;20192;-63
2023/07/16 04:19:49;;;;;;;7.10;3.13;;;18.10;99.90;;;;;;4992744;28;20896;-61
2023/07/16 04:22:15;;;;;;;6.60;3.13;;;18.10;99.90;;;;;;4992382;28;20511;-64
2023/07/16 04:24:41;;;;;;;7.80;3.57;;;18.10;1.00;;;;;;4992456;28;20274;-61
2023/07/16 04:27:07;;;;;;;8.20;2.87;;;18.20;1.00;;;;;;4992627;28;20423;-63
2023/07/16 04:29:32;;;;;;;3.77;2.83;;;18.20;1.00;;;;;;4992363;28;20191;-63
2023/07/16 04:31:58;;;;;;;4.50;3.13;;;18.30;1.00;;;;;;4992861;28;20192;-63
2023/07/16 04:34:24;;;;;;;5.27;3.00;;;18.40;99.90;;;;;;4992617;28;20508;-63
2023/07/16 04:36:49;;;;;;;5.70;3.00;;;18.50;99.90;;;;;;4992063;28;20566;-63
2023/07/16 04:39:15;;;;;;;5.37;3.10;;;18.70;1.00;;;;;;4992425;28;20196;-63
2023/07/16 04:41:40;;;;;;;5.73;2.90;;;18.90;1.00;;;;;;4992127;28;20184;-63
2023/07/16 04:44:06;;;;;;;11.37;3.73;;;18.90;99.90;;;;;;4992347;28;20615;-64
2023/07/16 04:46:32;;;;;;;7.00;3.17;;;18.90;99.90;;;;;;4991909;28;20194;-63
2023/07/16 04:48:57;;;;;;;3.87;2.53;;;19.00;99.90;;;;;;4991610;28;20223;-63
2023/07/16 04:51:23;;;;;;;7.43;3.33;;;19.10;99.90;;;;;;4992157;28;20199;-64
2023/07/16 04:53:49;;;;;;;3.50;2.67;;;19.30;99.90;;;;;;4990604;28;20224;-63
2023/07/16 04:56:15;;;;;;;7.63;3.40;;;19.50;99.90;;;;;;4992336;28;20562;-63
2023/07/16 04:58:41;;;;;;;7.27;3.37;;;19.60;86.70;;;;;;4992068;28;20196;-64
2023/07/16 05:01:10;;;;;;;7.50;2.70;;;19.70;36.40;;;;;;4992039;28;20419;-64
2023/07/16 05:03:36;;;;;;;5.10;2.73;;;19.70;1.00;;;;;;4992009;28;20408;-64
2023/07/16 05:06:02;;;;;;;5.80;2.50;;;19.80;1.00;;;;;;4992396;28;20793;-63
2023/07/16 05:08:28;;;;;;;4.87;2.57;;;19.90;1.00;;;;;;4992048;28;20471;-63
2023/07/16 05:10:54;;;;;;;2.90;2.53;;;20.00;1.00;;;;;;4991829;28;20427;-62
2023/07/16 05:13:20;;;;;;;5.90;2.50;;;20.10;1.00;;;;;;4991808;28;20185;-63
2023/07/16 05:15:45;;;;;;;3.70;2.53;;;20.20;1.00;;;;;;4991695;28;20474;-65
2023/07/16 05:18:11;;;;;;;5.40;2.73;;;20.30;1.00;;;;;;4991866;28;20605;-62
2023/07/16 05:20:36;;;;;;;5.70;2.80;;;20.40;1.00;;;;;;4992077;28;20201;-63
2023/07/16 05:23:02;;;;;;;8.47;2.67;;;20.40;1.00;;;;;;4992015;28;20540;-63
2023/07/16 05:25:28;;;;;;;6.80;2.63;;;20.30;1.00;;;;;;4992226;28;20183;-63
2023/07/16 05:27:53;;;;;;;3.80;2.40;;;20.10;1.00;;;;;;4991933;28;20642;-62
2023/07/16 05:30:19;;;;;;;7.70;2.40;;;20.20;1.00;;;;;;4991794;28;20188;-63
2023/07/16 05:32:44;;;;;;;4.87;2.43;;;20.30;1.00;;;;;;4991870;28;20186;-63
2023/07/16 05:35:10;;;;;;;5.20;2.47;;;20.50;1.00;;;;;;4991694;28;20177;-62
2023/07/16 05:37:36;;;;;;;7.07;2.60;;;20.60;1.00;;;;;;4991816;28;20211;-63
2023/07/16 05:40:03;;;;;;;7.20;2.30;;;20.60;1.00;;;;;;4991554;28;20192;-64
2023/07/16 05:42:28;;;;;;;10.33;2.57;;;20.60;1.00;;;;;;4991257;28;20201;-62
2023/07/16 05:44:54;;;;;;;5.43;2.77;;;20.70;1.00;;;;;;4991503;28;20410;-63
2023/07/16 05:47:20;;;;;;;2.67;2.30;;;20.70;1.00;;;;;;4991273;28;20233;-61
2023/07/16 05:49:46;;;;;;;4.50;2.17;;;20.80;1.00;;;;;;4991702;28;20554;-63
2023/07/16 05:52:11;;;;;;;4.47;2.47;;;20.80;1.00;;;;;;4991662;28;20237;-64
2023/07/16 05:54:37;;;;;;;3.90;2.00;;;20.80;1.00;;;;;;4991205;28;20241;-64
2023/07/16 05:57:03;;;;;;;3.87;2.60;;;20.90;1.00;;;;;;4991899;28;20212;-64
2023/07/16 05:59:28;;;;;;;2.47;2.13;;;21.00;1.00;;;;;;4991508;28;20683;-63
2023/07/16 06:01:55;;;;;;;4.77;2.57;;;21.10;1.00;;;;;;4991182;28;20274;-63
2023/07/16 06:04:20;;;;;;;6.73;2.50;;;21.20;1.00;;;;;;4991480;28;20200;-63
2023/07/16 06:06:46;;;;;;;7.77;2.17;;;21.10;1.00;;;;;;4994979;28;20410;-62
2023/07/16 06:09:12;;;;;;;5.30;2.50;;;21.10;1.00;;;;;;4994696;28;20210;-63
2023/07/16 06:11:37;;;;;;;7.27;2.50;;;21.20;1.00;;;;;;4994534;28;20198;-63
2023/07/16 06:14:03;;;;;;;8.63;2.40;;;21.30;1.00;;;;;;4994574;28;20558;-62
2023/07/16 06:16:28;;;;;;;8.17;2.47;;;21.40;1.00;;;;;;4994703;28;20187;-63
2023/07/16 06:18:54;;;;;;;5.43;3.00;;;21.50;1.00;;;;;;4994804;28;20544;-62
2023/07/16 06:21:19;;;;;;;7.17;2.30;;;21.60;1.00;;;;;;4994214;28;20662;-63
2023/07/16 06:23:45;;;;;;;3.60;2.63;;;21.60;1.00;;;;;;4994780;28;20543;-62
2023/07/16 06:26:11;;;;;;;7.50;2.73;;;21.70;1.00;;;;;;4994562;28;20181;-63
2023/07/16 06:28:36;;;;;;;5.70;2.40;;;21.80;1.00;;;;;;4993956;28;20206;-63
2023/07/16 06:31:02;;;;;;;5.30;2.80;;;21.90;1.00;;;;;;4994370;28;20189;-63
2023/07/16 06:33:28;;;;;;;7.37;2.73;;;22.00;1.00;;;;;;4993973;28;20187;-63
2023/07/16 06:35:53;;;;;;;8.30;2.63;;;22.30;1.00;;;;;;4994089;28;20218;-62
2023/07/16 06:38:19;;;;;;;6.60;3.10;;;22.50;1.00;;;;;;4994012;28;20426;-61
2023/07/16 06:40:49;;;;;;;8.73;3.30;;;22.60;1.00;;;;;;4994199;28;20193;-62
2023/07/16 06:43:16;;;;;;;6.47;3.00;;;22.70;1.00;;;;;;4993857;28;20268;-61
2023/07/16 06:45:41;;;;;;;5.07;2.90;;;22.70;1.00;;;;;;4993873;28;20890;-61
2023/07/16 06:48:07;;;;;;;5.00;3.10;;;22.60;1.00;;;;;;4993904;28;20455;-62
2023/07/16 06:50:33;;;;;;;10.07;3.80;;;22.50;1.00;;;;;;4994073;28;20232;-62
2023/07/16 06:52:58;;;;;;;8.20;3.43;;;22.30;1.00;;;;;;4993829;28;20179;-62
2023/07/16 06:55:24;;;;;;;5.67;4.03;;;22.30;1.00;;;;;;4993649;28;20239;-64
2023/07/16 06:57:49;;;;;;;9.33;3.60;;;22.20;1.00;;;;;;4993659;28;20192;-63
2023/07/16 07:00:15;;;;;;;6.20;3.27;;;22.30;1.00;;;;;;4993686;28;20638;-63
2023/07/16 07:02:42;;;;;;;6.80;3.50;;;22.30;1.00;;;;;;4994043;28;20184;-63
2023/07/16 07:05:07;;;;;;;7.90;3.67;;;22.30;1.00;;;;;;4993599;28;20172;-62
2023/07/16 07:07:33;;;;;;;6.77;3.50;;;22.60;1.00;;;;;;4993842;28;20471;-63
2023/07/16 07:09:58;;;;;;;8.20;3.10;;;22.60;1.00;;;;;;4993842;28;20194;-62
2023/07/16 07:12:24;;;;;;;7.77;3.87;;;22.50;1.00;;;;;;4993593;28;20202;-62
2023/07/16 07:14:50;;;;;;;8.70;4.10;;;22.40;1.00;;;;;;4993685;28;20237;-63
2023/07/16 07:17:15;;;;;;;12.07;3.93;;;22.60;1.00;;;;;;4992640;28;20230;-63
2023/07/16 07:19:42;;;;;;;14.53;3.60;;;22.90;1.00;;;;;;4993867;28;20214;-62
2023/07/16 07:22:08;;;;;;;6.77;3.43;;;22.90;1.00;;;;;;4993613;28;20512;-62
2023/07/16 07:24:33;;;;;;;7.93;3.60;;;22.80;1.00;;;;;;4993400;28;20438;-63
2023/07/16 07:26:59;;;;;;;12.07;3.50;;;22.80;1.00;;;;;;4993645;28;20185;-62
2023/07/16 07:29:24;;;;;;;7.93;3.50;;;22.70;1.00;;;;;;4993568;28;20625;-62
2023/07/16 07:31:50;;;;;;;8.37;3.40;;;22.90;1.00;;;;;;4993688;28;20635;-63
2023/07/16 07:34:16;;;;;;;10.57;3.50;;;23.10;1.00;;;;;;4993616;28;20185;-62
2023/07/16 07:36:41;;;;;;;6.97;3.77;;;23.50;1.00;;;;;;4993567;28;20660;-63
2023/07/16 07:39:07;;;;;;;7.80;3.50;;;23.90;1.00;;;;;;4993357;28;20183;-63
2023/07/16 07:41:33;;;;;;;5.03;3.10;;;24.00;1.00;;;;;;4993125;28;20185;-62
2023/07/16 07:43:58;;;;;;;9.17;3.70;;;24.00;1.00;;;;;;4992967;28;20181;-63
2023/07/16 07:46:24;;;;;;;8.33;3.13;;;23.60;1.00;;;;;;4992882;28;20740;-62
2023/07/16 07:48:50;;;;;;;10.47;3.47;;;23.20;1.00;;;;;;4992642;28;20276;-63
2023/07/16 07:51:15;;;;;;;12.60;3.47;;;22.80;1.00;;;;;;4993295;28;20196;-63
2023/07/16 07:53:41;;;;;;;10.17;3.80;;;22.90;1.00;;;;;;4992778;28;20207;-63
2023/07/16 07:56:07;;;;;;;6.13;2.90;;;23.10;1.00;;;;;;4992916;28;20181;-62
2023/07/16 07:58:33;;;;;;;10.40;3.90;;;23.40;1.00;;;;;;4993089;28;20196;-63
2023/07/16 08:01:06;;;;;;;12.57;3.20;;;23.80;1.00;;;;;;4992763;28;20412;-61
2023/07/16 08:03:32;;;;;;;8.03;3.60;;;24.60;1.00;;;;;;4992819;28;20212;-61
2023/07/16 08:05:58;;;;;;;7.57;2.90;;;25.30;1.00;;;;;;4992861;28;20423;-60
2023/07/16 08:08:23;;;;;;;7.90;2.60;;;25.70;99.90;;;;;;4992396;28;20223;-62
2023/07/16 08:10:49;;;;;;;7.17;2.60;;;25.80;99.90;;;;;;4992797;28;20708;-61
2023/07/16 08:13:14;;;;;;;8.40;3.07;;;25.30;99.90;;;;;;4992785;28;20181;-60
2023/07/16 08:15:40;;;;;;;4.97;3.00;;;24.80;99.90;;;;;;4992707;28;20180;-60
2023/07/16 08:18:06;;;;;;;9.63;2.60;;;24.90;99.90;;;;;;4992532;28;20184;-61
2023/07/16 08:20:32;;;;;;;5.90;2.60;;;25.10;99.90;;;;;;4992705;28;20193;-61
2023/07/16 08:22:57;;;;;;;7.60;2.80;;;24.90;99.90;;;;;;4992996;28;20191;-61
2023/07/16 08:25:23;;;;;;;5.67;2.93;;;24.70;99.90;;;;;;4992638;28;20579;-61
2023/07/16 08:27:49;;;;;;;10.33;2.93;;;24.30;99.90;;;;;;4992500;28;20209;-62
2023/07/16 08:30:15;;;;;;;5.00;2.60;;;23.90;99.90;;;;;;4992596;28;20766;-62
2023/07/16 08:32:41;;;;;;;4.33;2.50;;;23.80;99.90;;;;;;4992768;28;20181;-61
2023/07/16 08:35:07;;;;;;;11.00;2.60;;;23.70;99.90;;;;;;4992583;28;20495;-62
2023/07/16 08:37:33;;;;;;;8.83;3.33;;;23.40;99.90;;;;;;4992259;28;20639;-62
2023/07/16 08:39:58;;;;;;;10.37;3.60;;;23.40;99.90;;;;;;4992653;28;20473;-61
2023/07/16 08:42:24;;;;;;;6.37;3.40;;;23.40;99.90;;;;;;4992068;28;20547;-62
2023/07/16 08:44:50;;;;;;;18.37;12.30;;;23.20;99.90;;;;;;4992091;28;20259;-62
2023/07/16 08:47:16;;;;;;;5.30;3.37;;;23.00;99.90;;;;;;4992596;28;20272;-62
2023/07/16 08:49:50;;;;;;;4.97;3.17;;;22.70;99.90;;;;;;4992233;28;20428;-61
2023/07/16 08:52:17;;;;;;;9.80;3.83;;;22.50;99.90;;;;;;4992274;28;20407;-61
2023/07/16 08:54:42;;;;;;;9.50;3.73;;;22.50;99.90;;;;;;4991655;28;20474;-62
2023/07/16 08:57:09;;;;;;;7.50;4.10;;;22.60;99.90;;;;;;4992183;28;20907;-62
2023/07/16 08:59:35;;;;;;;6.57;4.43;;;22.90;99.90;;;;;;4991827;28;20190;-62
2023/07/16 09:02:02;;;;;;;7.93;4.70;;;22.90;99.90;;;;;;4991858;28;20514;-61
2023/07/16 09:04:29;;;;;;;7.40;4.70;;;22.60;99.90;;;;;;4991543;28;20195;-62
2023/07/16 09:06:55;;;;;;;6.83;4.50;;;22.50;99.90;;;;;;4992138;28;20439;-61
2023/07/16 09:09:23;;;;;;;8.03;4.87;;;22.70;99.90;;;;;;4992111;28;20463;-62
2023/07/16 09:11:48;;;;;;;5.87;4.50;;;23.00;99.90;;;;;;4991538;28;20192;-62
2023/07/16 09:14:21;;;;;;;9.00;4.63;;;23.40;99.90;;;;;;4991965;28;20412;-63
2023/07/16 09:16:51;;;;;;;5.37;4.13;;;24.20;99.90;;;;;;4991890;28;20621;-62
2023/07/16 09:19:18;;;;;;;8.57;4.20;;;24.70;99.90;;;;;;4992044;28;20508;-60
2023/07/16 09:21:46;;;;;;;8.50;4.40;;;24.70;99.90;;;;;;4991788;28;20408;-61
2023/07/16 09:24:12;;;;;;;5.40;4.30;;;24.90;99.90;;;;;;4991974;28;20913;-61
2023/07/16 09:26:38;;;;;;;13.10;9.17;;;25.10;99.90;;;;;;4991754;28;20409;-61
2023/07/16 09:29:10;;;;;;;7.90;4.70;;;24.80;99.90;;;;;;4991651;28;20220;-61
2023/07/16 09:31:35;;;;;;;11.33;6.53;;;24.60;99.90;;;;;;4991873;28;20439;-62
2023/07/16 09:34:01;;;;;;;11.10;5.00;;;24.80;99.90;;;;;;4990631;28;20802;-62
2023/07/16 09:36:26;;;;;;;9.57;4.97;;;25.20;99.90;;;;;;4991289;28;20536;-61
2023/07/16 09:38:57;;;;;;;4.20;3.80;;;25.50;99.90;;;;;;4991581;28;20185;-63
2023/07/16 09:41:23;;;;;;;12.53;5.07;;;25.20;99.90;;;;;;4994424;28;20686;-61
2023/07/16 09:43:48;;;;;;;6.13;4.67;;;24.60;99.90;;;;;;4994891;28;20420;-63
2023/07/16 09:46:14;;;;;;;10.57;3.70;;;24.80;99.90;;;;;;4994789;28;20519;-61
2023/07/16 09:48:39;;;;;;;12.60;4.47;;;25.60;99.90;;;;;;4995151;28;20216;-60
2023/07/16 09:51:11;;;;;;;8.00;4.20;;;25.40;99.90;;;;;;4995331;28;20188;-60
2023/07/16 09:53:41;;;;;;;6.03;4.60;;;24.80;99.90;;;;;;4994769;28;20185;-61
2023/07/16 09:56:10;;;;;;;7.10;4.80;;;24.00;99.90;;;;;;4995291;28;20419;-60
2023/07/16 09:58:37;;;;;;;10.37;4.60;;;23.50;99.90;;;;;;4994758;28;20499;-61
2023/07/16 10:01:02;;;;;;;9.67;4.70;;;23.10;99.90;;;;;;4994509;28;20412;-60
2023/07/16 10:03:28;;;;;;;7.77;4.50;;;23.50;99.90;;;;;;4994906;28;20423;-60
2023/07/16 10:06:05;;;;;;;7.80;4.10;;;24.50;99.90;;;;;;4994689;28;20278;-61
2023/07/16 10:08:37;;;;;;;6.27;3.90;;;24.50;99.90;;;;;;4994880;28;20551;-62
2023/07/16 10:11:02;;;;;;;11.37;4.07;;;24.30;99.90;;;;;;4995163;28;20415;-62
2023/07/16 10:13:28;;;;;;;6.90;3.97;;;24.20;99.90;;;;;;4994198;28;20422;-63
2023/07/16 10:15:56;;;;;;;7.10;4.10;;;24.70;99.90;;;;;;4994569;28;20609;-61
2023/07/16 10:18:31;;;;;;;8.80;4.10;;;25.00;99.90;;;;;;4994376;28;20196;-61
2023/07/16 10:21:07;;;;;;;6.30;3.90;;;24.90;99.90;;;;;;4994652;28;20415;-62
2023/07/16 10:23:39;;;;;;;5.60;3.77;;;24.00;99.90;;;;;;4994395;28;20435;-62
2023/07/16 10:26:06;;;;;;;10.20;3.83;;;23.80;99.90;;;;;;4994870;28;20419;-61
2023/07/16 10:28:33;;;;;;;11.27;4.10;;;23.90;99.90;;;;;;4994248;28;20470;-62
2023/07/16 10:30:58;;;;;;;10.83;4.80;;;23.90;99.90;;;;;;4994827;28;20443;-62
2023/07/16 10:33:24;;;;;;;13.30;4.00;;;23.90;99.90;;;;;;4994492;28;20892;-62
2023/07/16 10:35:50;;;;;;;7.00;3.70;;;24.00;99.90;;;;;;4993691;28;20214;-62
2023/07/16 10:38:15;;;;;;;6.77;3.60;;;23.90;99.90;;;;;;4994241;28;20215;-62
2023/07/16 10:40:43;;;;;;;6.03;3.30;;;24.00;99.90;;;;;;4994399;28;20192;-59
2023/07/16 10:43:08;;;;;;;8.00;4.20;;;24.20;99.90;;;;;;4993872;28;20189;-59
2023/07/16 10:45:34;;;;;;;7.43;3.73;;;24.90;99.90;;;;;;4994336;28;20449;-59
2023/07/16 10:47:59;;;;;;;4.57;3.40;;;25.10;99.90;;;;;;4993990;28;20645;-59
2023/07/16 10:50:25;;;;;;;8.07;3.60;;;24.60;99.90;;;;;;4993763;28;20271;-60
2023/07/16 10:52:55;;;;;;;6.53;3.80;;;24.30;99.90;;;;;;4994222;28;20184;-60
2023/07/16 10:55:22;;;;;;;5.43;3.37;;;23.90;99.90;;;;;;4994027;28;20243;-60
2023/07/16 10:57:49;;;;;;;5.50;4.07;;;23.50;99.90;;;;;;4993865;28;20455;-61
2023/07/16 11:00:16;;;;;;;8.97;3.53;;;23.90;99.90;;;;;;4993943;28;20431;-61
2023/07/16 11:02:44;;;;;;;5.50;3.80;;;24.60;99.90;;;;;;4994023;28;20488;-60
2023/07/16 11:05:11;;;;;;;12.43;4.03;;;25.10;99.90;;;;;;4993913;28;20435;-60
2023/07/16 11:07:37;;;;;;;5.73;3.63;;;25.40;99.90;;;;;;4993583;28;20464;-60
2023/07/16 11:10:02;;;;;;;9.53;3.90;;;25.00;99.90;;;;;;4993506;28;20507;-61
2023/07/16 11:12:28;;;;;;;8.17;3.43;;;24.60;99.90;;;;;;4993885;28;20280;-61
2023/07/16 11:14:55;;;;;;;7.27;4.30;;;24.70;99.90;;;;;;4993700;28;20191;-58
2023/07/16 11:17:23;;;;;;;7.70;4.20;;;24.60;99.90;;;;;;4993262;28;20185;-60
2023/07/16 11:19:51;;;;;;;6.43;3.67;;;24.60;99.90;;;;;;4993820;28;20504;-60
2023/07/16 11:22:16;;;;;;;6.00;3.50;;;24.80;99.90;;;;;;4993198;28;20416;-60
2023/07/16 11:24:50;;;;;;;8.73;4.00;;;24.70;99.90;;;;;;4992929;28;20420;-58
2023/07/16 11:27:25;;;;;;;6.20;3.70;;;24.90;99.90;;;;;;4993574;28;20192;-60
2023/07/16 11:29:58;;;;;;;7.10;3.83;;;25.00;99.90;;;;;;4993168;28;20904;-61
2023/07/16 11:32:34;;;;;;;6.17;3.47;;;25.00;99.90;;;;;;4993587;28;20754;-60
2023/07/16 11:35:02;;;;;;;5.57;3.83;;;25.20;99.90;;;;;;4993741;28;20880;-61
2023/07/16 11:37:29;;;;;;;6.70;3.40;;;25.50;99.90;;;;;;4993487;28;20484;-58
2023/07/16 11:40:07;;;;;;;5.63;3.30;;;26.50;99.90;;;;;;4993052;28;20421;-57
2023/07/16 11:42:38;;;;;;;5.03;3.37;;;26.50;99.90;;;;;;4993224;28;20423;-58
2023/07/16 11:45:14;;;;;;;6.00;3.33;;;26.60;99.90;;;;;;4993257;28;20922;-58
2023/07/16 11:47:39;;;;;;;7.57;3.60;;;27.10;99.90;;;;;;4993147;28;20459;-60
2023/07/16 11:50:06;;;;;;;6.93;3.27;;;27.20;99.90;;;;;;4993086;28;20764;-58
2023/07/16 11:52:31;;;;;;;6.27;3.23;;;27.00;99.90;;;;;;4993230;28;20224;-58
2023/07/16 11:55:01;;;;;;;8.27;3.83;;;26.40;99.90;;;;;;4992565;28;20499;-58
2023/07/16 11:57:28;;;;;;;5.03;3.23;;;26.30;99.90;;;;;;4992957;28;20200;-59
2023/07/16 11:59:54;;;;;;;7.23;3.87;;;26.50;99.90;;;;;;4993176;28;20423;-58
2023/07/16 12:02:20;;;;;;;5.13;3.80;;;26.40;99.90;;;;;;4992026;28;20420;-59
2023/07/16 12:04:45;;;;;;;4.03;3.00;;;26.70;99.90;;;;;;4992497;28;20193;-59
2023/07/16 12:07:11;;;;;;;7.80;3.67;;;27.00;99.90;;;;;;4992587;28;20423;-58
2023/07/16 12:09:37;;;;;;;7.53;3.10;;;26.60;99.90;;;;;;4993108;28;20193;-58
2023/07/16 12:12:03;;;;;;;7.60;3.60;;;25.50;99.90;;;;;;4993042;28;20181;-58
2023/07/16 12:14:28;;;;;;;5.50;4.10;;;24.60;99.90;;;;;;4992761;28;20271;-59
2023/07/16 12:16:54;;;;;;;6.90;3.53;;;24.00;99.90;;;;;;4992715;28;20181;-59
2023/07/16 12:19:19;;;;;;;7.67;3.50;;;24.00;99.90;;;;;;4992432;28;20185;-59
2023/07/16 12:21:45;;;;;;;6.60;3.63;;;24.70;99.90;;;;;;4992608;28;20227;-59
2023/07/16 12:24:11;;;;;;;5.97;3.43;;;25.40;99.90;;;;;;4992131;28;20219;-58
2023/07/16 12:26:37;;;;;;;5.70;3.53;;;25.80;99.90;;;;;;4992560;28;20188;-59
2023/07/16 12:29:03;;;;;;;4.90;3.60;;;26.00;99.90;;;;;;4992643;28;20897;-60
2023/07/16 12:31:33;;;;;;;8.47;3.53;;;26.70;99.90;;;;;;4992771;28;20235;-59
2023/07/16 12:34:01;;;;;;;6.70;3.23;;;26.90;99.90;;;;;;4992692;28;20507;-56
2023/07/16 12:36:27;;;;;;;4.90;3.20;;;27.00;99.90;;;;;;4991987;28;20408;-58
2023/07/16 12:38:52;;;;;;;8.73;3.30;;;27.00;99.90;;;;;;4992470;28;20573;-57
2023/07/16 12:41:18;;;;;;;10.87;3.50;;;27.40;99.90;;;;;;4992214;28;20210;-57
2023/07/16 12:43:44;;;;;;;4.60;3.40;;;27.50;99.90;;;;;;4992013;28;20181;-57
2023/07/16 12:46:09;;;;;;;4.83;3.20;;;27.60;99.90;;;;;;4992221;28;20629;-57
2023/07/16 12:48:35;;;;;;;4.40;2.87;;;27.50;99.90;;;;;;4991884;28;20535;-56